Time;durP1;ratioP1;P1;durP2;ratioP2;P2;SDS_P1;SDS_P2;PMS_P1;PMS_P2;Temp;Humidity;BMP_temperature;BMP_pressure;BME280_temperature;BME280_humidity;BME280_pressure;Samples;Min_cycle;Max_cycle;Signal;HPM_P1;HPM_P2
2021/10/22 00:02:12;;;;;;;;;;;20.60;99.90;;;;;;5092619;28;19915;-72
2021/10/22 00:04:39;;;;;;;;;;;20.60;99.90;;;;;;5092349;28;19922;-72
2021/10/22 00:07:05;;;;;;;;;;;20.70;99.90;;;;;;5092611;28;19912;-73
2021/10/22 00:09:32;;;;;;;;;;;21.00;99.90;;;;;;5091802;28;19961;-72
2021/10/22 00:11:59;;;;;;;;;;;21.20;99.90;;;;;;5092402;28;19961;-73
2021/10/22 00:14:26;;;;;;;;;;;21.30;99.90;;;;;;5091902;28;19912;-72
2021/10/22 00:16:53;;;;;;;;;;;21.20;99.90;;;;;;5092340;28;20414;-73
2021/10/22 00:19:21;;;;;;;;;;;21.50;99.90;;;;;;5092096;28;20282;-74
2021/10/22 00:21:48;;;;;;;;;;;21.70;99.90;;;;;;5091945;28;19962;-73
2021/10/22 00:24:15;;;;;;;;;;;21.70;99.90;;;;;;5091907;28;20416;-73
2021/10/22 00:26:41;;;;;;;;;;;21.70;99.90;;;;;;5092286;28;19931;-73
2021/10/22 00:29:08;;;;;;;;;;;21.60;99.90;;;;;;5073502;28;20007;-73
2021/10/22 00:31:35;;;;;;;;;;;21.50;99.90;;;;;;5092001;28;19909;-72
2021/10/22 00:34:01;;;;;;;;;;;21.40;99.90;;;;;;5092151;28;19912;-73
2021/10/22 00:36:28;;;;;;;;;;;21.30;99.90;;;;;;5091938;28;19908;-73
2021/10/22 00:38:55;;;;;;;;;;;21.20;99.90;;;;;;5092132;28;19915;-72
2021/10/22 00:41:22;;;;;;;;;;;21.10;99.90;;;;;;5091897;28;19908;-73
2021/10/22 00:43:48;;;;;;;;;;;21.00;99.90;;;;;;5073823;28;20395;-73
2021/10/22 00:46:15;;;;;;;;;;;21.10;99.90;;;;;;5091370;28;19909;-73
2021/10/22 00:48:42;;;;;;;;;;;21.00;99.90;;;;;;5091660;28;19908;-72
2021/10/22 00:51:13;;;;;;;;;;;21.00;99.90;;;;;;5092025;28;19908;-72
2021/10/22 00:53:41;;;;;;;;;;;21.00;99.90;;;;;;5091973;28;19981;-72
2021/10/22 00:56:11;;;;;;;;;;;21.00;99.90;;;;;;5091387;28;19920;-72
2021/10/22 00:58:38;;;;;;;;;;;21.20;99.90;;;;;;5091729;28;20364;-71
2021/10/22 01:01:05;;;;;;;;;;;21.10;99.90;;;;;;5091523;28;20006;-73
2021/10/22 01:03:32;;;;;;;;;;;21.20;99.90;;;;;;5091723;28;19916;-72
2021/10/22 01:06:01;;;;;;;;;;;21.30;99.90;;;;;;5093145;28;19915;-72
2021/10/22 01:08:32;;;;;;;;;;;21.40;99.90;;;;;;5092060;28;20007;-71
2021/10/22 01:10:59;;;;;;;;;;;21.80;99.90;;;;;;5092115;28;19908;-71
2021/10/22 01:13:26;;;;;;;;;;;22.10;99.90;;;;;;5091921;28;19912;-75
2021/10/22 01:15:52;;;;;;;;;;;22.50;99.90;;;;;;5091183;28;19912;-73
2021/10/22 01:18:19;;;;;;;;;;;22.90;99.90;;;;;;5091470;28;19912;-74
2021/10/22 01:20:46;;;;;;;;;;;23.10;99.90;;;;;;5091664;28;20011;-72
2021/10/22 01:23:13;;;;;;;;;;;23.20;99.90;;;;;;5091712;28;19929;-72
2021/10/22 01:25:39;;;;;;;;;;;23.60;99.90;;;;;;5091454;28;19908;-73
2021/10/22 01:28:08;;;;;;;;;;;23.30;99.90;;;;;;5091277;28;20353;-72
2021/10/22 01:30:34;;;;;;;;;;;23.20;99.90;;;;;;5091695;28;19912;-72
2021/10/22 01:33:02;;;;;;;;;;;22.90;99.90;;;;;;5091913;28;19909;-72
2021/10/22 01:35:31;;;;;;;;;;;22.70;99.90;;;;;;5091621;28;19908;-71
2021/10/22 01:37:58;;;;;;;;;;;22.70;99.90;;;;;;5091584;28;19908;-71
2021/10/22 01:40:25;;;;;;;;;;;22.60;99.90;;;;;;5094171;28;19943;-71
2021/10/22 01:42:52;;;;;;;;;;;22.30;99.90;;;;;;5094674;28;19918;-72
2021/10/22 01:45:18;;;;;;;;;;;22.20;99.90;;;;;;5094381;28;19957;-71
2021/10/22 01:47:45;;;;;;;;;;;22.20;99.90;;;;;;5094876;28;19915;-71
2021/10/22 01:50:12;;;;;;;;;;;22.30;99.90;;;;;;5094878;28;19955;-70
2021/10/22 01:52:39;;;;;;;;;;;22.20;99.90;;;;;;5095106;28;19908;-71
2021/10/22 01:55:06;;;;;;;;;;;22.10;99.90;;;;;;5094561;28;19912;-71
2021/10/22 01:57:33;;;;;;;;;;;22.10;99.90;;;;;;5094466;28;19920;-70
2021/10/22 02:00:00;;;;;;;;;;;21.90;99.90;;;;;;5094242;28;19944;-71
2021/10/22 02:02:26;;;;;;;;;;;21.90;99.90;;;;;;5094295;28;20268;-71
2021/10/22 02:04:53;;;;;;;;;;;21.90;99.90;;;;;;5094732;28;19915;-70
2021/10/22 02:07:20;;;;;;;;;;;21.90;99.90;;;;;;5094322;28;19912;-71
2021/10/22 02:09:47;;;;;;;;;;;22.00;99.90;;;;;;5094271;28;19913;-71
2021/10/22 02:12:13;;;;;;;;;;;22.20;99.90;;;;;;5094423;28;19909;-71
2021/10/22 02:14:40;;;;;;;;;;;22.20;99.90;;;;;;5094107;28;20011;-70
2021/10/22 02:17:07;;;;;;;;;;;22.20;99.90;;;;;;5094221;28;19912;-70
2021/10/22 02:19:33;;;;;;;;;;;22.30;99.90;;;;;;5094114;28;19912;-71
2021/10/22 02:22:00;;;;;;;;;;;22.40;99.90;;;;;;5094098;28;20373;-70
2021/10/22 02:24:27;;;;;;;;;;;22.30;99.90;;;;;;5093787;28;19922;-71
2021/10/22 02:26:54;;;;;;;;;;;22.10;99.90;;;;;;5094050;28;19908;-70
2021/10/22 02:29:20;;;;;;;;;;;22.00;99.90;;;;;;5094275;28;19908;-71
2021/10/22 02:31:47;;;;;;;;;;;22.10;99.90;;;;;;5094040;28;19915;-72
2021/10/22 02:34:14;;;;;;;;;;;22.00;99.90;;;;;;5093987;28;19947;-72
2021/10/22 02:36:41;;;;;;;;;;;21.90;99.90;;;;;;5093923;28;20367;-70
2021/10/22 02:39:07;;;;;;;;;;;22.00;99.90;;;;;;5093956;28;20003;-71
2021/10/22 02:41:34;;;;;;;;;;;22.00;99.90;;;;;;5093803;28;19908;-73
2021/10/22 02:44:01;;;;;;;;;;;22.00;99.90;;;;;;5093897;28;19923;-71
2021/10/22 02:46:27;;;;;;;;;;;22.10;99.90;;;;;;5093227;28;19912;-73
2021/10/22 02:48:54;;;;;;;;;;;22.10;99.90;;;;;;5093471;28;20064;-72
2021/10/22 02:51:21;;;;;;;;;;;22.20;99.90;;;;;;5074789;28;19919;-72
2021/10/22 02:53:47;;;;;;;;;;;22.10;99.90;;;;;;5093468;28;19908;-72
2021/10/22 02:56:14;;;;;;;;;;;22.10;99.90;;;;;;5093143;28;19920;-72
2021/10/22 02:58:40;;;;;;;;;;;21.90;99.90;;;;;;5093457;28;19938;-71
2021/10/22 03:01:08;;;;;;;;;;;21.90;99.90;;;;;;5093976;28;20350;-70
2021/10/22 03:03:35;;;;;;;;;;;21.90;99.90;;;;;;5093541;28;19916;-71
2021/10/22 03:06:05;;;;;;;;;;;21.80;99.90;;;;;;5093286;28;20204;-71
2021/10/22 03:08:32;;;;;;;;;;;21.80;99.90;;;;;;5093863;28;20357;-72
2021/10/22 03:10:59;;;;;;;;;;;21.90;99.90;;;;;;5094178;28;19912;-71
2021/10/22 03:13:28;;;;;;;;;;;22.00;99.90;;;;;;5093758;28;19909;-75
2021/10/22 03:15:56;;;;;;;;;;;21.90;99.90;;;;;;5093043;28;19954;-73
2021/10/22 03:18:22;;;;;;;;;;;21.90;99.90;;;;;;5092958;28;19969;-72
2021/10/22 03:20:49;;;;;;;;;;;21.70;99.90;;;;;;5093972;28;19914;-72
2021/10/22 03:23:16;;;;;;;;;;;21.80;99.90;;;;;;5093108;28;19916;-71
2021/10/22 03:25:42;;;;;;;;;;;21.80;99.90;;;;;;5092949;28;19909;-72
2021/10/22 03:28:10;;;;;;;;;;;21.70;99.90;;;;;;5093234;28;19961;-72
2021/10/22 03:30:37;;;;;;;;;;;21.80;99.90;;;;;;5093026;28;20420;-71
2021/10/22 03:33:04;;;;;;;;;;;21.80;99.90;;;;;;5093037;28;19938;-72
2021/10/22 03:35:31;;;;;;;;;;;21.80;99.90;;;;;;5092644;28;20388;-72
2021/10/22 03:37:58;;;;;;;;;;;21.80;99.90;;;;;;5092657;28;19908;-72
2021/10/22 03:40:25;;;;;;;;;;;21.70;99.90;;;;;;5093064;28;19919;-71
2021/10/22 03:42:55;;;;;;;;;;;21.70;99.90;;;;;;5092923;28;19916;-70
2021/10/22 03:45:22;;;;;;;;;;;21.50;99.90;;;;;;5074276;28;19940;-70
2021/10/22 03:47:49;;;;;;;;;;;21.60;99.90;;;;;;5092344;28;19916;-70
2021/10/22 03:50:19;;;;;;;;;;;21.40;99.90;;;;;;5092676;28;19912;-71
2021/10/22 03:52:46;;;;;;;;;;;21.20;99.90;;;;;;5092747;28;20315;-71
2021/10/22 03:55:13;;;;;;;;;;;21.40;99.90;;;;;;5092655;28;20359;-73
2021/10/22 03:57:40;;;;;;;;;;;21.50;99.90;;;;;;5092706;28;19966;-73
2021/10/22 04:00:07;;;;;;;;;;;21.60;99.90;;;;;;5092820;28;20234;-72
2021/10/22 04:02:34;;;;;;;;;;;21.60;99.90;;;;;;5092236;28;20006;-73
2021/10/22 04:05:04;;;;;;;;;;;21.60;99.90;;;;;;5092713;28;19955;-71
2021/10/22 04:07:32;;;;;;;;;;;21.60;99.90;;;;;;5093281;28;19933;-71
2021/10/22 04:09:59;;;;;;;;;;;21.50;99.90;;;;;;5092701;28;19908;-71
2021/10/22 04:12:25;;;;;;;;;;;21.60;99.90;;;;;;5092892;28;19994;-72
2021/10/22 04:14:52;;;;;;;;;;;21.50;99.90;;;;;;5092686;28;19915;-71
2021/10/22 04:17:19;;;;;;;;;;;21.60;99.90;;;;;;5094657;28;19908;-72
2021/10/22 04:19:45;;;;;;;;;;;21.60;99.90;;;;;;5092150;28;19993;-71
2021/10/22 04:22:12;;;;;;;;;;;21.60;99.90;;;;;;5092244;28;19909;-73
2021/10/22 04:24:39;;;;;;;;;;;21.60;99.90;;;;;;5092454;28;19916;-71
2021/10/22 04:27:05;;;;;;;;;;;21.60;99.90;;;;;;5091983;28;19956;-71
2021/10/22 04:29:32;;;;;;;;;;;21.50;99.90;;;;;;5091875;28;20355;-72
2021/10/22 04:31:59;;;;;;;;;;;21.60;99.90;;;;;;5092243;28;19908;-73
2021/10/22 04:34:28;;;;;;;;;;;21.40;99.90;;;;;;5092108;28;19919;-72
2021/10/22 04:37:47;;;;;;;;;;;21.40;99.90;;;;;;5092081;28;20021;-72
2021/10/22 04:42:27;;;;;;;;;;;21.40;99.90;;;;;;5092260;28;19915;-71
2021/10/22 04:44:53;;;;;;;;;;;21.40;99.90;;;;;;5091845;28;19912;-71
2021/10/22 04:47:20;;;;;;;;;;;21.40;99.90;;;;;;5092029;28;20002;-72
2021/10/22 04:49:46;;;;;;;;;;;21.40;99.90;;;;;;5091852;28;19912;-71
2021/10/22 04:52:13;;;;;;;;;;;21.40;99.90;;;;;;5092328;28;19957;-71
2021/10/22 04:54:40;;;;;;;;;;;21.30;99.90;;;;;;5092089;28;19908;-71
2021/10/22 04:57:07;;;;;;;;;;;21.40;99.90;;;;;;5091948;28;20025;-71
2021/10/22 04:59:33;;;;;;;;;;;21.30;99.90;;;;;;5091722;28;19908;-70
2021/10/22 05:02:00;;;;;;;;;;;21.20;99.90;;;;;;5092557;28;19908;-71
2021/10/22 05:04:27;;;;;;;;;;;21.10;99.90;;;;;;5091293;28;19916;-72
2021/10/22 05:06:53;;;;;;;;;;;21.00;99.90;;;;;;5090609;28;19915;-72
2021/10/22 05:09:20;;;;;;;;;;;21.00;99.90;;;;;;5088273;28;19908;-73
2021/10/22 05:11:46;;;;;;;;;;;21.10;99.90;;;;;;5080131;28;19908;-72
2021/10/22 05:14:13;;;;;;;;;;;21.20;99.90;;;;;;5092813;28;19912;-71
2021/10/22 05:16:40;;;;;;;;;;;21.00;99.90;;;;;;5095967;28;19915;-73
2021/10/22 05:19:06;;;;;;;;;;;20.80;99.90;;;;;;5095551;28;19965;-72
2021/10/22 05:21:33;;;;;;;;;;;20.80;99.90;;;;;;5083856;28;19917;-72
2021/10/22 05:24:00;;;;;;;;;;;20.60;99.90;;;;;;5075397;28;20041;-74
2021/10/22 05:26:26;;;;;;;;;;;20.70;99.90;;;;;;5075303;28;19934;-73
2021/10/22 05:28:53;;;;;;;;;;;20.80;99.90;;;;;;5075371;28;19908;-73
2021/10/22 05:31:20;;;;;;;;;;;20.80;99.90;;;;;;5075462;28;20286;-73
2021/10/22 05:33:46;;;;;;;;;;;20.80;99.90;;;;;;5075232;28;20347;-72
2021/10/22 05:36:13;;;;;;;;;;;20.90;99.90;;;;;;5075079;28;20025;-73
2021/10/22 05:38:40;;;;;;;;;;;20.80;99.90;;;;;;5075542;28;20332;-72
2021/10/22 05:41:06;;;;;;;;;;;20.70;99.90;;;;;;5075567;28;19919;-73
2021/10/22 05:43:33;;;;;;;;;;;20.60;99.90;;;;;;5075197;28;20358;-72
2021/10/22 05:46:00;;;;;;;;;;;20.70;99.90;;;;;;5075045;28;20375;-73
2021/10/22 05:48:27;;;;;;;;;;;20.80;99.90;;;;;;5074938;28;19944;-72
2021/10/22 05:50:54;;;;;;;;;;;20.80;99.90;;;;;;5074604;28;19912;-72
2021/10/22 05:53:20;;;;;;;;;;;20.90;99.90;;;;;;5073002;28;20335;-74
2021/10/22 05:55:47;;;;;;;;;;;20.80;99.90;;;;;;5064804;28;19923;-73
2021/10/22 05:58:14;;;;;;;;;;;20.80;99.90;;;;;;5093160;28;19912;-72
2021/10/22 06:00:42;;;;;;;;;;;20.70;99.90;;;;;;5094007;28;20046;-72
2021/10/22 06:03:09;;;;;;;;;;;20.60;99.90;;;;;;5093434;28;20367;-73
2021/10/22 06:05:38;;;;;;;;;;;20.60;99.90;;;;;;5092977;28;19913;-71
2021/10/22 06:08:07;;;;;;;;;;;20.60;99.90;;;;;;5093690;28;20530;-70
2021/10/22 06:10:34;;;;;;;;;;;20.60;99.90;;;;;;5092554;28;19908;-70
2021/10/22 06:13:01;;;;;;;;;;;20.50;99.90;;;;;;5092907;28;19912;-70
2021/10/22 06:15:29;;;;;;;;;;;20.50;99.90;;;;;;5092871;28;19943;-73
2021/10/22 06:17:56;;;;;;;;;;;20.40;99.90;;;;;;5092382;28;20462;-71
2021/10/22 06:20:32;;;;;;;;;;;20.40;99.90;;;;;;5092609;28;19962;-70
2021/10/22 06:25:38;;;;;;;;;;;20.50;99.90;;;;;;5093049;28;20375;-72
2021/10/22 06:28:06;;;;;;;;;;;20.40;99.90;;;;;;5093178;28;20444;-70
2021/10/22 06:30:33;;;;;;;;;;;20.30;99.90;;;;;;5091326;28;19908;-72
2021/10/22 06:33:00;;;;;;;;;;;20.30;99.90;;;;;;5093248;28;19912;-72
2021/10/22 06:35:26;;;;;;;;;;;20.30;99.90;;;;;;5093266;28;19916;-72
2021/10/22 06:37:55;;;;;;;;;;;20.40;99.90;;;;;;5092965;28;19912;-73
2021/10/22 06:40:23;;;;;;;;;;;20.40;99.90;;;;;;5093151;28;19963;-73
2021/10/22 06:42:51;;;;;;;;;;;20.20;99.90;;;;;;5092922;28;20369;-73
2021/10/22 06:45:18;;;;;;;;;;;20.20;99.90;;;;;;5093497;28;19946;-73
2021/10/22 06:47:47;;;;;;;;;;;20.30;99.90;;;;;;5092802;28;20282;-72
2021/10/22 06:50:15;;;;;;;;;;;20.20;99.90;;;;;;5092736;28;19952;-72
2021/10/22 06:52:47;;;;;;;;;;;20.30;99.90;;;;;;5092594;28;19995;-72
2021/10/22 06:55:13;;;;;;;;;;;20.30;99.90;;;;;;5091602;28;19938;-72
2021/10/22 06:57:41;;;;;;;;;;;20.30;99.90;;;;;;5092387;28;19916;-72
2021/10/22 07:00:08;;;;;;;;;;;20.30;99.90;;;;;;5092909;28;19931;-70
2021/10/22 07:02:45;;;;;;;;;;;20.20;99.90;;;;;;5092680;28;19908;-72
2021/10/22 07:05:34;;;;;;;;;;;20.20;99.90;;;;;;5091736;28;19976;-70
2021/10/22 07:08:02;;;;;;;;;;;20.10;99.90;;;;;;5091432;28;20015;-70
2021/10/22 07:10:29;;;;;;;;;;;20.10;99.90;;;;;;5092145;28;19912;-70
2021/10/22 07:12:57;;;;;;;;;;;20.00;99.90;;;;;;5091443;28;19969;-72
2021/10/22 07:15:25;;;;;;;;;;;19.90;99.90;;;;;;5092006;28;19915;-70
2021/10/22 07:17:52;;;;;;;;;;;19.90;99.90;;;;;;5091644;28;19919;-71
2021/10/22 07:20:19;;;;;;;;;;;19.80;99.90;;;;;;5090825;28;19912;-72
2021/10/22 07:22:52;;;;;;;;;;;19.80;99.90;;;;;;5091110;28;19997;-72
2021/10/22 07:25:20;;;;;;;;;;;19.80;99.90;;;;;;5091465;28;20006;-72
2021/10/22 07:27:48;;;;;;;;;;;19.70;99.90;;;;;;5090823;28;19982;-71
2021/10/22 07:30:15;;;;;;;;;;;19.70;99.90;;;;;;5091606;28;19908;-73
2021/10/22 07:32:41;;;;;;;;;;;19.70;99.90;;;;;;5092248;28;20011;-72
2021/10/22 07:35:09;;;;;;;;;;;19.60;99.90;;;;;;5091052;28;19908;-71
2021/10/22 07:37:36;;;;;;;;;;;19.70;99.90;;;;;;5090739;28;19912;-71
2021/10/22 07:40:04;;;;;;;;;;;19.60;99.90;;;;;;5091260;28;19908;-72
2021/10/22 07:42:33;;;;;;;;;;;19.60;99.90;;;;;;5092197;28;19916;-72
2021/10/22 07:45:03;;;;;;;;;;;19.60;99.90;;;;;;5091908;28;20366;-73
2021/10/22 07:47:31;;;;;;;;;;;19.50;99.90;;;;;;5091869;28;19956;-71
2021/10/22 07:49:58;;;;;;;;;;;19.50;99.90;;;;;;5091200;28;19965;-72
2021/10/22 07:52:26;;;;;;;;;;;19.50;99.90;;;;;;5091314;28;19919;-73
2021/10/22 07:54:53;;;;;;;;;;;19.50;99.90;;;;;;5091423;28;19947;-72
2021/10/22 07:57:20;;;;;;;;;;;19.50;99.90;;;;;;5091276;28;19920;-72
2021/10/22 07:59:47;;;;;;;;;;;19.40;99.90;;;;;;5091184;28;19908;-74
2021/10/22 08:02:15;;;;;;;;;;;19.30;99.90;;;;;;5090388;28;19951;-73
2021/10/22 08:04:44;;;;;;;;;;;19.30;99.90;;;;;;5090237;28;19922;-73
2021/10/22 08:07:11;;;;;;;;;;;19.30;99.90;;;;;;5092051;28;20447;-73
2021/10/22 08:09:39;;;;;;;;;;;19.30;99.90;;;;;;5092182;28;19909;-73
2021/10/22 08:12:06;;;;;;;;;;;19.40;99.90;;;;;;5092381;28;19914;-72
2021/10/22 08:14:33;;;;;;;;;;;19.40;99.90;;;;;;5092114;28;19908;-72
2021/10/22 08:17:00;;;;;;;;;;;19.30;99.90;;;;;;5077679;28;19936;-71
2021/10/22 08:19:27;;;;;;;;;;;19.30;99.90;;;;;;5052088;28;19920;-72
2021/10/22 08:22:25;;;;;;;;;;;19.30;99.90;;;;;;5051224;28;20213;-73
2021/10/22 08:24:45;;;;;;;;;;;19.30;99.90;;;;;;5051735;28;20320;-72
2021/10/22 08:27:12;;;;;;;;;;;19.20;99.90;;;;;;5051966;28;19913;-72
2021/10/22 08:29:39;;;;;;;;;;;19.20;99.90;;;;;;5051661;28;20347;-72
2021/10/22 08:32:05;;;;;;;;;;;19.20;99.90;;;;;;5052454;28;19909;-74
2021/10/22 08:34:32;;;;;;;;;;;19.20;99.90;;;;;;5051379;28;19995;-73
2021/10/22 08:36:59;;;;;;;;;;;19.20;99.90;;;;;;5056167;28;20317;-72
2021/10/22 08:39:26;;;;;;;;;;;19.10;99.90;;;;;;5071683;28;19908;-72
2021/10/22 08:41:53;;;;;;;;;;;19.10;99.90;;;;;;5071455;28;19912;-72
2021/10/22 08:44:21;;;;;;;;;;;19.10;99.90;;;;;;5071722;28;20366;-72
2021/10/22 08:46:48;;;;;;;;;;;19.10;99.90;;;;;;5071924;28;19909;-72
2021/10/22 08:49:15;;;;;;;;;;;19.10;99.90;;;;;;5054514;28;19958;-72
2021/10/22 08:51:42;;;;;;;;;;;19.10;99.90;;;;;;5075207;28;19922;-71
2021/10/22 08:54:11;;;;;;;;;;;19.10;99.90;;;;;;5075574;28;20252;-72
2021/10/22 08:56:41;;;;;;;;;;;19.10;99.90;;;;;;5090326;28;19920;-72
2021/10/22 08:59:08;;;;;;;;;;;19.10;99.90;;;;;;5096674;28;20285;-71
2021/10/22 09:01:35;;;;;;;;;;;19.10;99.90;;;;;;5096589;28;19939;-72
2021/10/22 09:04:02;;;;;;;;;;;19.10;99.90;;;;;;5095696;28;19920;-71
2021/10/22 09:06:29;;;;;;;;;;;19.10;99.90;;;;;;5095150;28;20062;-72
2021/10/22 09:08:59;;;;;;;;;;;19.10;99.90;;;;;;5095786;28;19908;-72
2021/10/22 09:11:29;;;;;;;;;;;19.10;99.90;;;;;;5094753;28;19908;-71
2021/10/22 09:14:15;;;;;;;;;;;19.10;99.90;;;;;;5086848;28;19916;-73
2021/10/22 09:16:43;;;;;;;;;;;19.10;99.90;;;;;;5095881;28;19908;-72
2021/10/22 09:19:11;;;;;;;;;;;19.10;99.90;;;;;;5094487;28;19975;-73
2021/10/22 09:21:38;;;;;;;;;;;19.10;99.90;;;;;;5095934;28;19915;-72
2021/10/22 09:24:15;;;;;;;;;;;19.10;99.90;;;;;;5095275;28;20385;-73
2021/10/22 09:26:49;;;;;;;;;;;19.00;99.90;;;;;;5095821;28;19915;-73
2021/10/22 09:29:20;;;;;;;;;;;19.00;99.90;;;;;;5095590;28;20378;-73
2021/10/22 09:31:47;;;;;;;;;;;19.00;99.90;;;;;;5095987;28;19916;-73
2021/10/22 09:34:28;;;;;;;;;;;19.00;99.90;;;;;;5095683;28;20011;-72
2021/10/22 09:37:05;;;;;;;;;;;19.00;99.90;;;;;;5095065;28;20369;-71
2021/10/22 09:39:36;;;;;;;;;;;19.00;99.90;;;;;;5095068;28;19913;-71
2021/10/22 09:42:03;;;;;;;;;;;19.00;99.90;;;;;;5094168;28;19912;-71
2021/10/22 09:44:32;;;;;;;;;;;19.10;99.90;;;;;;5091822;28;20012;-72
2021/10/22 09:47:04;;;;;;;;;;;19.10;99.90;;;;;;5093128;28;19912;-72
2021/10/22 09:49:34;;;;;;;;;;;19.10;99.90;;;;;;5092242;28;20374;-72
2021/10/22 09:52:01;;;;;;;;;;;19.10;99.90;;;;;;5091908;28;19912;-72
2021/10/22 09:54:31;;;;;;;;;;;19.20;99.90;;;;;;5093809;28;19916;-72
2021/10/22 09:57:02;;;;;;;;;;;19.10;99.90;;;;;;5093139;28;19927;-73
2021/10/22 09:59:29;;;;;;;;;;;19.10;99.90;;;;;;5093510;28;19912;-72
2021/10/22 10:01:56;;;;;;;;;;;19.10;99.90;;;;;;5093955;28;20278;-73
2021/10/22 10:04:27;;;;;;;;;;;19.10;99.90;;;;;;5092670;28;19920;-74
2021/10/22 10:06:57;;;;;;;;;;;19.10;99.90;;;;;;5092517;28;19916;-74
2021/10/22 10:09:27;;;;;;;;;;;19.10;99.90;;;;;;5092495;28;20358;-73
2021/10/22 10:11:56;;;;;;;;;;;19.10;99.90;;;;;;5092394;28;19908;-74
2021/10/22 10:14:26;;;;;;;;;;;19.10;99.90;;;;;;5092777;28;20367;-72
2021/10/22 10:16:53;;;;;;;;;;;19.10;99.90;;;;;;5092756;28;19919;-73
2021/10/22 10:19:24;;;;;;;;;;;19.10;99.90;;;;;;5092661;28;20542;-72
2021/10/22 10:22:02;;;;;;;;;;;19.10;99.90;;;;;;5092081;28;19919;-72
2021/10/22 10:24:30;;;;;;;;;;;19.10;99.90;;;;;;5091740;28;19920;-72
2021/10/22 10:27:08;;;;;;;;;;;19.10;99.90;;;;;;5091993;28;19911;-72
2021/10/22 10:29:39;;;;;;;;;;;19.10;99.90;;;;;;5092549;28;19919;-71
2021/10/22 10:32:07;;;;;;;;;;;19.00;99.90;;;;;;5092562;28;20022;-72
2021/10/22 10:34:35;;;;;;;;;;;19.10;99.90;;;;;;5092045;28;19912;-72
2021/10/22 10:37:05;;;;;;;;;;;19.10;99.90;;;;;;5091380;28;20331;-71
2021/10/22 10:39:44;;;;;;;;;;;19.10;99.90;;;;;;5091900;28;19981;-72
2021/10/22 10:42:23;;;;;;;;;;;19.10;99.90;;;;;;5092219;28;20007;-72
2021/10/22 10:44:51;;;;;;;;;;;19.10;99.90;;;;;;5091826;28;20006;-72
2021/10/22 10:47:30;;;;;;;;;;;19.00;99.90;;;;;;5092266;28;19916;-71
2021/10/22 10:49:57;;;;;;;;;;;19.00;99.90;;;;;;5091836;28;19918;-73
2021/10/22 10:52:39;;;;;;;;;;;18.90;99.90;;;;;;5092157;28;19999;-72
2021/10/22 10:55:27;;;;;;;;;;;18.90;99.90;;;;;;5091811;28;20057;-72
2021/10/22 10:57:53;;;;;;;;;;;19.00;99.90;;;;;;5091865;28;19931;-72
2021/10/22 11:00:21;;;;;;;;;;;18.90;99.90;;;;;;5092000;28;19914;-72
2021/10/22 11:03:07;;;;;;;;;;;18.90;99.90;;;;;;5091322;28;19915;-74
2021/10/22 11:05:49;;;;;;;;;;;18.90;99.90;;;;;;5091698;28;19912;-73
2021/10/22 11:08:19;;;;;;;;;;;18.90;99.90;;;;;;5091611;28;19947;-74
2021/10/22 11:11:01;;;;;;;;;;;18.90;99.90;;;;;;5090589;28;20015;-72
2021/10/22 11:13:46;;;;;;;;;;;18.90;99.90;;;;;;5091585;28;19912;-73
2021/10/22 11:16:26;;;;;;;;;;;18.90;99.90;;;;;;5091237;28;19973;-74
2021/10/22 11:19:01;;;;;;;;;;;19.00;99.90;;;;;;5090538;28;19912;-73
2021/10/22 11:21:28;;;;;;;;;;;18.90;99.90;;;;;;5091724;28;20492;-73
2021/10/22 11:23:55;;;;;;;;;;;18.90;99.90;;;;;;5091596;28;19969;-73
2021/10/22 11:26:22;;;;;;;;;;;18.90;99.90;;;;;;5091621;28;20359;-73
2021/10/22 11:28:56;;;;;;;;;;;18.90;99.90;;;;;;5091263;28;19920;-72
2021/10/22 11:31:36;;;;;;;;;;;18.90;99.90;;;;;;5091500;28;19969;-74
2021/10/22 11:34:03;;;;;;;;;;;18.80;99.90;;;;;;5091525;28;19919;-72
2021/10/22 11:36:30;;;;;;;;;;;18.80;99.90;;;;;;5086334;28;20426;-72
2021/10/22 11:38:58;;;;;;;;;;;18.80;99.90;;;;;;5090943;28;19999;-71
2021/10/22 11:41:25;;;;;;;;;;;18.80;99.90;;;;;;5090708;28;20534;-71
2021/10/22 11:44:04;;;;;;;;;;;18.80;99.90;;;;;;5090817;28;19916;-72
2021/10/22 11:46:40;;;;;;;;;;;18.80;99.90;;;;;;5091327;28;19970;-73
2021/10/22 11:49:07;;;;;;;;;;;18.80;99.90;;;;;;5090890;28;19915;-72
2021/10/22 11:51:35;;;;;;;;;;;18.70;99.90;;;;;;5090813;28;19915;-71
2021/10/22 11:54:02;;;;;;;;;;;18.80;99.90;;;;;;5090620;28;19961;-71
2021/10/22 11:56:32;;;;;;;;;;;18.80;99.90;;;;;;5091014;28;19920;-71
2021/10/22 11:58:59;;;;;;;;;;;18.80;99.90;;;;;;5090807;28;19915;-72
2021/10/22 12:01:26;;;;;;;;;;;18.80;99.90;;;;;;5090780;28;20342;-71
2021/10/22 12:03:56;;;;;;;;;;;18.80;99.90;;;;;;5090539;28;19912;-72
2021/10/22 12:06:23;;;;;;;;;;;18.80;99.90;;;;;;5091261;28;19919;-73
2021/10/22 12:08:50;;;;;;;;;;;18.80;99.90;;;;;;5090208;28;19908;-72
2021/10/22 12:11:18;;;;;;;;;;;18.70;99.90;;;;;;5090853;28;19919;-71
2021/10/22 12:13:45;;;;;;;;;;;18.70;99.90;;;;;;5088991;28;19952;-72
2021/10/22 12:16:16;;;;;;;;;;;18.70;99.90;;;;;;5090712;28;19919;-72
2021/10/22 12:18:55;;;;;;;;;;;18.70;99.90;;;;;;5090558;28;19966;-72
2021/10/22 12:21:34;;;;;;;;;;;18.60;99.90;;;;;;5090310;28;19912;-71
2021/10/22 12:24:02;;;;;;;;;;;18.60;99.90;;;;;;5089468;28;19926;-73
2021/10/22 12:26:32;;;;;;;;;;;18.60;99.90;;;;;;5090524;28;19952;-72
2021/10/22 12:29:11;;;;;;;;;;;18.60;99.90;;;;;;5090216;28;20503;-73
2021/10/22 12:31:44;;;;;;;;;;;18.60;99.90;;;;;;5090845;28;19948;-73
2021/10/22 12:34:12;;;;;;;;;;;18.70;99.90;;;;;;5089843;28;20286;-72
2021/10/22 12:36:40;;;;;;;;;;;18.70;99.90;;;;;;5090502;28;20323;-73
2021/10/22 12:39:22;;;;;;;;;;;18.60;99.90;;;;;;5090371;28;19912;-72
2021/10/22 12:41:49;;;;;;;;;;;18.70;99.90;;;;;;5088809;28;20377;-72
2021/10/22 12:44:18;;;;;;;;;;;18.70;99.90;;;;;;5090260;28;20290;-71
2021/10/22 12:46:51;;;;;;;;;;;18.70;99.90;;;;;;5089901;28;19916;-73
2021/10/22 12:49:22;;;;;;;;;;;18.60;99.90;;;;;;5089969;28;19909;-72
2021/10/22 12:51:54;;;;;;;;;;;18.60;99.90;;;;;;5088574;28;19934;-72
2021/10/22 12:54:21;;;;;;;;;;;18.60;99.90;;;;;;5090068;28;19977;-72
2021/10/22 12:56:54;;;;;;;;;;;18.60;99.90;;;;;;5090039;28;19927;-72
2021/10/22 12:59:25;;;;;;;;;;;18.60;99.90;;;;;;5089666;28;20017;-72
2021/10/22 13:01:55;;;;;;;;;;;18.60;99.90;;;;;;5089822;28;20027;-71
2021/10/22 13:04:23;;;;;;;;;;;18.60;99.90;;;;;;5089900;28;19916;-73
2021/10/22 13:07:21;;;;;;;;;;;18.60;99.90;;;;;;5090077;28;19908;-72
2021/10/22 13:15:01;;;;;;;;;;;18.60;99.90;;;;;;5090277;28;20074;-73
2021/10/22 13:20:56;;;;;;;;;;;18.60;99.90;;;;;;5090734;28;19989;-72
2021/10/22 13:23:07;;;;;;;;;;;18.60;99.90;;;;;;5084182;28;20293;-72
2021/10/22 13:25:34;;;;;;;;;;;18.50;99.90;;;;;;5089384;28;20744;-72
2021/10/22 13:28:01;;;;;;;;;;;18.50;99.90;;;;;;5089549;28;19915;-72
2021/10/22 13:30:28;;;;;;;;;;;18.50;99.90;;;;;;5089862;28;19954;-72
2021/10/22 13:33:02;;;;;;;;;;;18.50;99.90;;;;;;5088519;28;19908;-72
2021/10/22 13:35:29;;;;;;;;;;;18.50;99.90;;;;;;5090757;28;20163;-72
2021/10/22 13:37:56;;;;;;;;;;;18.40;99.90;;;;;;5092971;28;19912;-72
2021/10/22 13:40:24;;;;;;;;;;;18.50;99.90;;;;;;5093496;28;19951;-71
2021/10/22 13:42:51;;;;;;;;;;;18.40;99.90;;;;;;5093438;28;19912;-71
2021/10/22 13:45:17;;;;;;;;;;;18.40;99.90;;;;;;5093662;28;19923;-73
2021/10/22 13:47:44;;;;;;;;;;;18.40;99.90;;;;;;5091420;28;19912;-73
2021/10/22 13:50:11;;;;;;;;;;;18.40;99.90;;;;;;5093044;28;20031;-73
2021/10/22 13:52:37;;;;;;;;;;;18.40;99.90;;;;;;5092531;28;19961;-73
2021/10/22 13:55:04;;;;;;;;;;;18.40;99.90;;;;;;5092841;28;19953;-73
2021/10/22 13:57:31;;;;;;;;;;;18.30;99.90;;;;;;5092862;28;20016;-73
2021/10/22 13:59:58;;;;;;;;;;;18.40;99.90;;;;;;5092760;28;19934;-73
2021/10/22 14:02:24;;;;;;;;;;;18.40;99.90;;;;;;5092991;28;19908;-73
2021/10/22 14:04:51;;;;;;;;;;;18.50;99.90;;;;;;5092683;28;19922;-73
2021/10/22 14:07:18;;;;;;;;;;;18.50;99.90;;;;;;5092892;28;19923;-74
2021/10/22 14:09:45;;;;;;;;;;;18.50;99.90;;;;;;5092686;28;19923;-74
2021/10/22 14:12:25;;;;;;;;;;;18.50;99.90;;;;;;5092900;28;19989;-72
2021/10/22 14:14:58;;;;;;;;;;;18.50;99.90;;;;;;5093059;28;19912;-73
2021/10/22 14:17:41;;;;;;;;;;;18.40;99.90;;;;;;5092716;28;19908;-72
2021/10/22 14:30:57;;;;;;;;;;;18.40;99.90;;;;;;5092698;28;20004;-73
2021/10/22 14:33:24;;;;;;;;;;;18.50;99.90;;;;;;5091257;28;19912;-73
2021/10/22 14:35:50;;;;;;;;;;;18.50;99.90;;;;;;5092045;28;19933;-72
2021/10/22 14:38:17;;;;;;;;;;;18.50;99.90;;;;;;5091831;28;19908;-72
2021/10/22 14:40:44;;;;;;;;;;;18.50;99.90;;;;;;5092279;28;19908;-73
2021/10/22 14:43:15;;;;;;;;;;;18.50;99.90;;;;;;5092152;28;19912;-73
2021/10/22 14:46:02;;;;;;;;;;;18.40;99.90;;;;;;5091765;28;19912;-74
2021/10/22 14:48:30;;;;;;;;;;;18.40;99.90;;;;;;5091439;28;19908;-73
2021/10/22 14:51:02;;;;;;;;;;;18.40;99.90;;;;;;5092321;28;19912;-73